Weather at Bangor International Airport

Public forecast

Using degrees Fahrenheit for public forecast. Weather courtesy of forecast.io.

Current aviation weather report (METAR) for Bangor International Airport

Retrieved 2020/09/30 20:53 UTC (48 minutes ago):

KBGR 302053Z 26010G18KT 230V290 10SM BKN050 BKN080 BKN250 21/13 A2955 RMK AO2 PK WND 24031/1955 WSHFT 2004 RAB09E23 SLP002 P0000 60000 T02110128 53036

Aviation forecast (TAF) for Bangor International Airport

Retrieved 2020/09/30 18:22 UTC (3 hours ago):

TAF KBGR 301720Z 3018/0118 19016G28KT 6SM -SHRA OVC020 FM302000 24012G23KT P6SM VCSH BKN045 FM302200 25009KT P6SM SCT060 FM010400 20006KT P6SM FEW060 FM011530 21012G20KT P6SM FEW060